KOKC

Will Rogers World Airport

Oklahoma City, Oklahoma, USA
KOKC 261123Z 2612/2712 32005KT P6SM FEW250 TEMPO 2612/2614 4SM BR FM270300 34011KT P6SM BKN080
Issued Valid From Valid To
Apr-26 @ 11:23 UTC
(2 hours ago)
Apr-26 @ 12:00 UTC
(2 hours ago)
Apr-27 @ 12:00 UTC
(in 22 hours)
Apr-26 @ 12:00 to Apr-27 @ 03:00
KOKC 261123Z 2612/2712 32005KT P6SM FEW250
Wind Visibility Clouds
320° at 5 knots Greater than 6 miles
  • Few at 25,000' AGL
Temporary Apr-26 @ 12:00 to Apr-26 @ 14:00
TEMPO 2612/2614 4SM BR
Visibility Conditions
4 miles
  • Mist
From Apr-27 @ 03:00 to Apr-27 @ 12:00
FM270300 34011KT P6SM BKN080
Wind Visibility Clouds
340° at 11 knots Greater than 6 miles
  • Broken at 8,000' AGL
KOKC 261123Z 2612/2712 32005KT P6SM FEW250 TEMPO 2612/2614 4SM BR FM270300 34011KT P6SM BKN080
Issued Apr-26 @ 11:23 UTC
(2 hours ago)
Valid From Apr-26 @ 12:00 UTC
(2 hours ago)
Valid To Apr-27 @ 12:00 UTC
(in 22 hours)
Apr-26 @ 12:00 - Apr-27 @ 03:00
Wind Visibility
320° at 5 knots Greater than 6 miles
Clouds
  • Few at 25,000' AGL
Temporary Apr-26 @ 12:00 - Apr-26 @ 14:00
Conditions
  • Mist
From Apr-27 @ 03:00 - Apr-27 @ 12:00
Wind Visibility
340° at 11 knots Greater than 6 miles
Clouds
  • Broken at 8,000' AGL